Time;durP1;ratioP1;P1;durP2;ratioP2;P2;SDS_P1;SDS_P2;PMS_P1;PMS_P2;Temp;Humidity;BMP_temperature;BMP_pressure;BME280_temperature;BME280_humidity;BME280_pressure;Samples;Min_cycle;Max_cycle;Signal;HPM_P1;HPM_P2
2021/10/24 00:00:52;;;;;;;25.27;14.75;;;;;;;10.66;92.31;102716.16;5080117;28;20043;-78
2021/10/24 00:03:19;;;;;;;21.75;14.70;;;;;;;10.71;92.45;102714.28;5078594;28;20471;-77
2021/10/24 00:05:45;;;;;;;22.63;14.20;;;;;;;10.77;92.55;102706.22;5062733;28;20063;-78
2021/10/24 00:08:10;;;;;;;23.90;14.65;;;;;;;10.65;92.58;102707.34;5060546;28;20033;-77
2021/10/24 00:10:36;;;;;;;21.80;14.20;;;;;;;10.65;93.10;102693.28;5078549;28;20052;-76
2021/10/24 00:13:01;;;;;;;19.55;14.05;;;;;;;10.71;92.91;102703.72;5080369;28;20260;-79
2021/10/24 00:15:27;;;;;;;22.10;14.25;;;;;;;10.71;93.12;102703.72;5084584;28;20029;-78
2021/10/24 00:17:52;;;;;;;19.45;14.32;;;;;;;10.55;92.97;102705.84;5082042;28;20032;-79
2021/10/24 00:20:18;;;;;;;18.95;13.75;;;;;;;10.52;93.48;102701.50;5080647;28;20040;-79
2021/10/24 00:22:43;;;;;;;19.08;14.25;;;;;;;10.70;92.85;102694.88;5085099;28;20080;-79
2021/10/24 00:25:09;;;;;;;21.52;14.35;;;;;;;10.71;92.83;102695.78;5079501;28;20021;-81
2021/10/24 00:27:34;;;;;;;22.80;14.40;;;;;;;10.65;93.06;102699.41;5093964;22;20141;-82
2021/10/24 00:29:59;;;;;;;19.38;14.10;;;;;;;10.69;92.51;102697.56;5096168;28;20432;-82
2021/10/24 00:32:25;;;;;;;21.17;13.82;;;;;;;10.65;92.83;102690.63;5095937;28;20409;-81
2021/10/24 00:34:51;;;;;;;25.63;14.88;;;;;;;10.52;93.15;102700.59;5096259;28;20429;-82
2021/10/24 00:37:16;;;;;;;21.55;15.02;;;;;;;10.54;93.31;102698.81;5095888;28;20046;-83
2021/10/24 00:39:42;;;;;;;27.23;15.00;;;;;;;10.54;93.17;102685.59;5077758;28;20036;-78
2021/10/24 00:42:07;;;;;;;22.08;14.13;;;;;;;10.64;93.23;102687.09;5097461;28;20070;-78
2021/10/24 00:44:33;;;;;;;20.25;14.15;;;;;;;10.75;92.68;102684.19;5098385;28;20020;-77
2021/10/24 00:47:00;;;;;;;22.27;14.40;;;;;;;10.67;93.22;102691.47;5062334;28;20031;-78
2021/10/24 00:49:26;;;;;;;20.38;14.13;;;;;;;10.68;93.02;102680.84;5097069;28;20031;-79
2021/10/24 00:51:51;;;;;;;21.92;14.65;;;;;;;10.64;93.04;102688.88;5095440;28;20039;-78
2021/10/24 00:54:27;;;;;;;22.25;14.68;;;;;;;10.64;93.10;102673.00;5077432;28;20024;-77
2021/10/24 00:56:55;;;;;;;21.10;14.15;;;;;;;10.63;93.06;102673.91;5095298;28;20024;-82
2021/10/24 00:59:24;;;;;;;20.00;13.82;;;;;;;10.70;92.75;102681.66;5095277;28;20088;-82
2021/10/24 01:01:49;;;;;;;22.17;14.55;;;;;;;10.63;93.12;102679.19;5076978;28;20089;-80
2021/10/24 01:04:15;;;;;;;23.75;14.38;;;;;;;10.64;92.74;102681.81;5095222;28;20016;-77
2021/10/24 01:06:41;;;;;;;20.77;14.30;;;;;;;10.71;92.93;102675.47;5095417;28;20032;-80
2021/10/24 01:09:14;;;;;;;19.65;13.93;;;;;;;10.73;92.57;102669.28;5077246;28;20415;-77
2021/10/24 01:11:41;;;;;;;20.10;13.50;;;;;;;10.67;92.83;102668.50;5078530;28;20024;-80
2021/10/24 01:14:08;;;;;;;18.58;12.95;;;;;;;10.78;92.14;102670.88;5096240;28;20020;-81
2021/10/24 01:16:35;;;;;;;22.00;13.93;;;;;;;10.69;92.59;102666.69;5095088;28;20028;-81
2021/10/24 01:19:04;;;;;;;23.02;14.13;;;;;;;10.63;92.64;102665.97;5096083;28;20024;-80
2021/10/24 01:21:29;;;;;;;17.83;12.90;;;;;;;10.74;92.59;102665.72;5099172;28;20036;-82
2021/10/24 01:23:55;;;;;;;20.77;14.13;;;;;;;10.79;91.81;102653.25;5100276;28;20385;-81
2021/10/24 01:26:20;;;;;;;21.70;13.18;;;;;;;10.73;91.95;102656.03;5079766;28;20467;-82
2021/10/24 01:28:45;;;;;;;16.75;12.80;;;;;;;10.77;91.83;102658.56;5043597;28;20098;-81
2021/10/24 01:31:11;;;;;;;23.48;14.13;;;;;;;10.79;91.53;102656.78;5095132;28;20036;-81
2021/10/24 01:33:36;;;;;;;21.42;13.98;;;;;;;10.77;91.78;102653.28;5094905;28;20470;-82
2021/10/24 01:36:06;;;;;;;22.05;14.10;;;;;;;10.70;91.74;102652.56;5094738;28;20482;-80
2021/10/24 01:38:32;;;;;;;17.45;12.68;;;;;;;10.51;91.75;102649.47;5094477;28;20024;-84
2021/10/24 01:40:57;;;;;;;21.15;13.73;;;;;;;10.65;91.66;102646.50;5094366;28;20401;-81
2021/10/24 01:43:23;;;;;;;17.63;13.13;;;;;;;10.67;91.38;102644.69;5094606;28;20028;-81
2021/10/24 01:45:49;;;;;;;18.05;13.65;;;;;;;10.72;91.33;102652.50;5063071;28;20210;-82
2021/10/24 01:48:16;;;;;;;18.63;13.25;;;;;;;10.73;91.33;102646.34;5079513;28;20030;-80
2021/10/24 01:50:42;;;;;;;16.95;13.20;;;;;;;10.82;90.71;102651.41;5011594;28;20026;-81
2021/10/24 01:53:07;;;;;;;24.50;13.35;;;;;;;10.48;91.28;102636.31;5079146;28;20030;-81
2021/10/24 01:55:33;;;;;;;19.38;12.60;;;;;;;10.74;90.74;102640.13;5011147;28;20022;-80
2021/10/24 01:57:58;;;;;;;17.92;12.85;;;;;;;10.69;90.67;102623.47;5079006;28;20034;-82
2021/10/24 02:00:24;;;;;;;18.48;13.52;;;;;;;10.71;90.52;102640.19;5011462;28;20034;-80
2021/10/24 02:02:49;;;;;;;19.98;12.70;;;;;;;10.70;90.97;102626.09;5011318;28;20037;-78
2021/10/24 02:05:15;;;;;;;22.02;12.52;;;;;;;10.79;90.46;102624.13;5011287;28;20442;-80
2021/10/24 02:07:40;;;;;;;17.38;13.13;;;;;;;10.81;90.51;102628.47;5011347;28;20089;-80
2021/10/24 02:10:09;;;;;;;19.10;12.48;;;;;;;10.64;90.71;102628.88;5011258;28;20038;-79
2021/10/24 02:12:35;;;;;;;19.20;12.75;;;;;;;10.59;91.17;102618.41;5078864;28;20032;-79
2021/10/24 02:15:00;;;;;;;18.02;11.98;;;;;;;10.77;90.76;102618.88;5011159;28;20116;-79
2021/10/24 02:17:26;;;;;;;18.35;13.25;;;;;;;10.58;90.90;102619.34;5010941;28;20468;-79
2021/10/24 02:19:51;;;;;;;16.65;11.73;;;;;;;10.71;90.26;102609.34;5011219;28;20042;-80
2021/10/24 02:22:17;;;;;;;19.55;12.40;;;;;;;10.58;90.42;102619.34;5010773;28;20049;-80
2021/10/24 02:24:42;;;;;;;16.75;11.70;;;;;;;10.55;90.42;102613.25;5010817;28;20498;-78
2021/10/24 02:27:08;;;;;;;16.27;12.95;;;;;;;10.59;90.26;102610.50;5010595;28;20046;-80
2021/10/24 02:29:34;;;;;;;18.55;11.82;;;;;;;10.43;90.62;102611.75;5010859;28;20034;-81
2021/10/24 02:31:59;;;;;;;17.23;11.82;;;;;;;10.17;91.49;102603.50;5078521;28;20524;-79
2021/10/24 02:34:24;;;;;;;21.35;12.95;;;;;;;10.09;92.02;102605.44;5010688;28;20022;-78
2021/10/24 02:36:50;;;;;;;19.05;12.90;;;;;;;10.08;92.22;102603.72;5010011;28;20079;-76
2021/10/24 02:39:15;;;;;;;16.23;11.10;;;;;;;9.96;91.95;102599.59;5010566;28;20407;-76
2021/10/24 02:41:41;;;;;;;18.85;12.38;;;;;;;9.85;93.00;102600.69;5010591;28;20391;-77
2021/10/24 02:44:07;;;;;;;18.10;13.00;;;;;;;9.73;93.47;102600.94;5010596;28;20036;-78
2021/10/24 02:46:33;;;;;;;17.52;13.00;;;;;;;9.64;93.31;102598.50;5078336;28;20468;-76
2021/10/24 02:48:59;;;;;;;19.10;12.30;;;;;;;9.47;94.30;102600.59;5077363;28;20053;-79
2021/10/24 02:51:24;;;;;;;19.95;12.50;;;;;;;9.54;94.17;102597.84;5010479;28;20387;-80
2021/10/24 02:53:50;;;;;;;19.65;12.93;;;;;;;9.53;94.03;102596.94;5010613;28;20029;-79
2021/10/24 02:56:15;;;;;;;19.70;12.40;;;;;;;9.47;94.11;102594.44;5010187;28;20079;-79
2021/10/24 02:58:41;;;;;;;19.48;13.25;;;;;;;9.40;94.57;102588.41;5010363;28;20041;-78
2021/10/24 03:01:06;;;;;;;21.48;12.50;;;;;;;9.29;94.97;102591.25;5077908;28;20036;-78
2021/10/24 03:03:31;;;;;;;21.90;12.73;;;;;;;9.20;95.30;102589.66;5010267;28;20030;-78
2021/10/24 03:05:57;;;;;;;17.10;12.57;;;;;;;9.21;95.63;102591.41;5010198;28;20040;-77
2021/10/24 03:08:22;;;;;;;20.27;12.90;;;;;;;9.19;96.10;102592.34;5077771;28;20026;-77
2021/10/24 03:10:48;;;;;;;20.67;13.88;;;;;;;9.12;96.17;102582.78;5010305;28;20065;-77
2021/10/24 03:13:15;;;;;;;19.50;13.05;;;;;;;9.09;96.18;102583.72;5010151;28;20464;-78
2021/10/24 03:15:41;;;;;;;19.58;13.38;;;;;;;9.03;96.15;102576.78;5010237;28;20017;-81
2021/10/24 03:18:06;;;;;;;20.48;13.20;;;;;;;8.97;96.99;102579.53;5010084;28;20486;-77
2021/10/24 03:20:32;;;;;;;19.98;13.18;;;;;;;8.87;96.85;102570.91;5010128;28;20065;-77
2021/10/24 03:22:57;;;;;;;23.05;14.30;;;;;;;8.83;97.40;102582.44;5009803;28;20026;-77
2021/10/24 03:25:23;;;;;;;22.55;14.82;;;;;;;8.76;97.82;102580.78;5009960;28;20022;-77
2021/10/24 03:27:49;;;;;;;24.98;15.25;;;;;;;8.69;98.02;102577.41;5009527;28;20086;-78
2021/10/24 03:30:14;;;;;;;24.23;16.92;;;;;;;8.61;98.22;102574.88;5010096;28;20034;-81
2021/10/24 03:32:40;;;;;;;24.85;15.82;;;;;;;8.53;98.77;102574.09;5010474;28;20026;-81
2021/10/24 03:35:05;;;;;;;26.40;17.00;;;;;;;8.51;100.00;102574.13;5010314;28;20038;-81
2021/10/24 03:37:31;;;;;;;25.13;15.75;;;;;;;8.45;100.00;102569.84;5010370;28;20026;-81
2021/10/24 03:39:56;;;;;;;30.52;17.13;;;;;;;8.38;100.00;102572.59;5077285;28;20030;-76
2021/10/24 03:42:22;;;;;;;27.77;16.95;;;;;;;8.33;100.00;102565.63;5009692;28;20026;-77
2021/10/24 03:44:47;;;;;;;28.80;17.63;;;;;;;8.29;100.00;102566.56;5009549;28;20026;-82
2021/10/24 03:47:12;;;;;;;28.08;17.50;;;;;;;8.28;100.00;102562.19;5009863;28;20026;-79
2021/10/24 03:49:38;;;;;;;32.13;17.60;;;;;;;8.29;100.00;102563.06;5013776;28;20083;-82
2021/10/24 03:52:04;;;;;;;31.02;17.38;;;;;;;8.23;100.00;102567.53;5013619;28;20037;-83
2021/10/24 03:54:29;;;;;;;34.50;17.33;;;;;;;8.22;100.00;102567.56;5013639;28;20033;-82
2021/10/24 03:56:54;;;;;;;31.80;17.92;;;;;;;8.17;100.00;102564.13;5013683;28;20384;-80
2021/10/24 03:59:20;;;;;;;33.92;19.50;;;;;;;8.12;100.00;102560.66;5081695;28;20030;-82
2021/10/24 04:01:45;;;;;;;30.50;18.10;;;;;;;8.07;100.00;102558.09;5012973;28;20029;-81
2021/10/24 04:04:11;;;;;;;30.95;18.52;;;;;;;8.12;100.00;102558.03;5013016;28;20107;-82
2021/10/24 04:06:36;;;;;;;30.05;18.45;;;;;;;8.04;100.00;102561.66;5013202;28;20120;-81
2021/10/24 04:09:02;;;;;;;30.65;18.17;;;;;;;8.00;100.00;102552.06;5013418;28;20026;-77
2021/10/24 04:11:30;;;;;;;30.75;17.50;;;;;;;7.96;100.00;102545.97;5014629;28;20038;-77
2021/10/24 04:13:55;;;;;;;28.33;16.52;;;;;;;7.95;100.00;102553.91;5014931;28;20082;-82
2021/10/24 04:16:21;;;;;;;32.58;19.27;;;;;;;7.92;100.00;102549.53;5014327;28;20042;-79
2021/10/24 04:18:46;;;;;;;26.52;16.85;;;;;;;7.90;100.00;102553.97;5013324;28;20040;-79
2021/10/24 04:21:12;;;;;;;29.50;17.92;;;;;;;7.85;100.00;102546.13;5081443;28;20041;-77
2021/10/24 04:23:37;;;;;;;28.58;17.75;;;;;;;7.85;100.00;102542.63;5012799;28;20367;-78
2021/10/24 04:26:03;;;;;;;28.27;18.05;;;;;;;7.79;100.00;102551.47;5013565;28;20103;-77
2021/10/24 04:28:28;;;;;;;29.65;17.75;;;;;;;7.79;100.00;102535.69;5090906;22;20052;-81
2021/10/24 04:30:53;;;;;;;30.23;18.98;;;;;;;7.81;100.00;102536.50;5095897;28;20428;-81
2021/10/24 04:33:19;;;;;;;30.77;19.40;;;;;;;7.77;100.00;102534.81;5077507;28;20028;-81
2021/10/24 04:35:44;;;;;;;26.67;17.20;;;;;;;7.77;100.00;102531.31;5095786;28;20032;-81
2021/10/24 04:38:10;;;;;;;26.42;17.25;;;;;;;7.72;100.00;102531.38;5095631;28;20028;-84
2021/10/24 04:40:35;;;;;;;25.58;17.30;;;;;;;7.71;100.00;102519.97;5095643;28;20032;-82
2021/10/24 04:43:00;;;;;;;22.20;15.68;;;;;;;7.67;100.00;102522.69;5095481;28;20028;-80
2021/10/24 04:45:26;;;;;;;29.77;16.98;;;;;;;7.70;100.00;102528.75;5096467;28;20024;-80
2021/10/24 04:47:51;;;;;;;25.05;16.67;;;;;;;7.65;100.00;102514.81;5096623;28;20024;-79
2021/10/24 04:50:17;;;;;;;27.13;16.02;;;;;;;7.76;100.00;102522.56;5097643;28;20032;-81
2021/10/24 04:52:42;;;;;;;25.90;16.45;;;;;;;7.66;100.00;102521.81;5080386;28;20034;-81
2021/10/24 04:55:08;;;;;;;23.95;15.90;;;;;;;7.65;100.00;102519.19;5095427;28;20032;-76
2021/10/24 04:57:34;;;;;;;25.15;16.20;;;;;;;7.63;100.00;102516.56;5095501;28;20031;-76
2021/10/24 04:59:59;;;;;;;27.48;16.05;;;;;;;7.64;100.00;102518.31;5077545;28;20073;-77
2021/10/24 05:02:25;;;;;;;24.08;16.60;;;;;;;7.66;100.00;102521.81;5095763;28;20361;-79
2021/10/24 05:04:50;;;;;;;21.98;15.88;;;;;;;7.65;100.00;102516.56;5095413;28;20035;-77
2021/10/24 05:07:15;;;;;;;23.05;15.80;;;;;;;7.70;100.00;102512.09;5094870;28;20158;-77
2021/10/24 05:09:41;;;;;;;24.58;16.27;;;;;;;7.68;100.00;102513.88;5077338;28;20041;-78
2021/10/24 05:12:07;;;;;;;22.73;15.07;;;;;;;7.58;100.00;102508.75;5094956;28;20031;-78
2021/10/24 05:14:32;;;;;;;24.92;16.98;;;;;;;7.62;100.00;102503.44;5094599;28;20486;-77
2021/10/24 05:16:58;;;;;;;26.60;17.10;;;;;;;7.52;100.00;102505.31;5095046;28;20017;-78
2021/10/24 05:19:23;;;;;;;25.13;15.68;;;;;;;7.58;100.00;102507.84;5076603;28;20028;-77
2021/10/24 05:21:48;;;;;;;29.15;17.80;;;;;;;7.63;100.00;102506.03;5094796;28;20032;-78
2021/10/24 05:24:14;;;;;;;22.83;15.15;;;;;;;7.60;100.00;102506.09;5093531;28;20028;-78
2021/10/24 05:26:39;;;;;;;24.40;15.55;;;;;;;7.63;100.00;102507.78;5094241;28;20028;-77
2021/10/24 05:29:05;;;;;;;25.35;16.45;;;;;;;7.52;100.00;102500.94;5094611;28;20100;-78
2021/10/24 05:31:30;;;;;;;24.52;16.25;;;;;;;7.55;100.00;102500.88;5094580;28;20040;-77
2021/10/24 05:33:56;;;;;;;25.00;16.73;;;;;;;7.57;100.00;102500.84;5094774;28;20054;-77
2021/10/24 05:36:21;;;;;;;24.42;17.08;;;;;;;7.54;100.00;102501.78;5076540;28;20496;-77
2021/10/24 05:38:47;;;;;;;27.60;17.77;;;;;;;7.46;100.00;102496.63;5094255;28;20097;-78
2021/10/24 05:41:12;;;;;;;24.58;16.02;;;;;;;7.54;100.00;102500.91;5094425;28;20024;-77
2021/10/24 05:43:37;;;;;;;26.05;16.27;;;;;;;7.46;100.00;102496.63;5094320;28;20039;-78
2021/10/24 05:46:03;;;;;;;23.15;14.98;;;;;;;7.56;100.00;102488.59;5094212;28;20035;-77
2021/10/24 05:48:28;;;;;;;21.55;14.68;;;;;;;7.61;100.00;102489.38;5094326;28;20026;-78
2021/10/24 05:50:54;;;;;;;23.45;14.15;;;;;;;7.60;100.00;102487.66;5094358;28;20042;-78
2021/10/24 05:53:20;;;;;;;24.08;14.82;;;;;;;7.57;100.00;102483.31;5094199;28;20390;-77
2021/10/24 05:55:47;;;;;;;25.42;15.27;;;;;;;7.57;100.00;102480.69;5093976;28;20052;-78
2021/10/24 05:58:13;;;;;;;22.08;15.57;;;;;;;7.60;100.00;102478.00;5094472;28;20151;-77
2021/10/24 06:00:38;;;;;;;22.13;14.57;;;;;;;7.66;100.00;102473.53;5095266;28;20032;-78
2021/10/24 06:03:04;;;;;;;24.70;15.43;;;;;;;7.62;100.00;102469.19;5094824;28;20024;-77
2021/10/24 06:05:30;;;;;;;21.58;14.30;;;;;;;7.65;100.00;102470.03;5095546;28;20028;-77
2021/10/24 06:07:56;;;;;;;20.98;13.80;;;;;;;7.66;100.00;102466.50;5076431;28;20435;-76
2021/10/24 06:10:27;;;;;;;19.63;13.82;;;;;;;7.60;100.00;102467.47;5092830;28;20024;-77
2021/10/24 06:12:53;;;;;;;23.42;14.10;;;;;;;7.60;100.00;102458.69;5093443;28;20034;-77
2021/10/24 06:15:19;;;;;;;22.35;14.18;;;;;;;7.59;100.00;102468.34;5093791;28;20412;-78
2021/10/24 06:17:45;;;;;;;18.60;13.52;;;;;;;7.60;100.00;102458.69;5062031;28;20034;-75
2021/10/24 06:20:11;;;;;;;20.60;13.45;;;;;;;7.60;100.00;102463.97;5011229;28;20018;-77
2021/10/24 06:22:36;;;;;;;19.40;12.82;;;;;;;7.67;99.95;102454.22;5010604;28;20026;-76
2021/10/24 06:25:03;;;;;;;21.25;13.15;;;;;;;7.50;100.00;102468.47;5011007;28;20030;-78
2021/10/24 06:27:28;;;;;;;20.33;13.23;;;;;;;7.52;99.92;102458.81;5051914;28;20055;-78
2021/10/24 06:29:54;;;;;;;21.30;13.82;;;;;;;7.48;99.98;102459.75;5113851;28;20032;-78
2021/10/24 06:32:19;;;;;;;18.35;13.63;;;;;;;7.40;100.00;102451.97;5113912;28;20389;-76
2021/10/24 06:34:45;;;;;;;21.42;13.93;;;;;;;7.18;100.00;102456.63;5113742;28;20094;-78
2021/10/24 06:37:10;;;;;;;18.50;13.05;;;;;;;7.35;100.00;102459.03;5113910;28;20034;-78
2021/10/24 06:39:35;;;;;;;18.45;13.18;;;;;;;7.51;100.00;102466.72;5113741;28;20023;-78
2021/10/24 06:42:01;;;;;;;19.50;13.70;;;;;;;7.43;100.00;102461.56;5113476;28;20036;-78
2021/10/24 06:44:26;;;;;;;20.70;14.10;;;;;;;7.48;100.00;102459.75;5113797;28;20079;-77
2021/10/24 06:46:52;;;;;;;21.13;13.40;;;;;;;7.48;100.00;102465.00;5113600;28;20467;-77
2021/10/24 06:49:17;;;;;;;19.73;13.55;;;;;;;7.48;100.00;102455.34;5095441;28;20469;-77
2021/10/24 06:51:42;;;;;;;19.20;13.27;;;;;;;7.41;100.00;102452.81;5113642;28;20355;-77
2021/10/24 06:54:08;;;;;;;20.23;13.10;;;;;;;7.51;100.00;102461.47;5113644;28;20369;-79
2021/10/24 06:56:34;;;;;;;16.40;12.35;;;;;;;7.53;99.44;102463.16;5113247;28;20407;-78
2021/10/24 06:58:59;;;;;;;18.08;13.07;;;;;;;7.57;99.42;102464.00;5113238;28;20028;-76
2021/10/24 07:01:24;;;;;;;19.52;13.20;;;;;;;7.62;99.78;102462.19;5113274;28;20042;-76
2021/10/24 07:03:50;;;;;;;20.35;13.57;;;;;;;7.65;99.03;102459.50;5113315;28;20024;-77
2021/10/24 07:06:16;;;;;;;18.95;12.48;;;;;;;7.65;98.53;102459.50;5113046;28;20103;-77
2021/10/24 07:08:42;;;;;;;17.05;13.10;;;;;;;7.68;98.21;102458.59;5113306;28;20381;-77
2021/10/24 07:11:07;;;;;;;18.88;13.15;;;;;;;7.74;97.55;102453.22;5112989;28;20065;-78
2021/10/24 07:13:32;;;;;;;20.50;12.85;;;;;;;7.77;97.80;102454.94;5112997;28;20031;-77
2021/10/24 07:15:58;;;;;;;19.08;12.88;;;;;;;7.96;97.13;102463.41;5113267;28;20098;-77
2021/10/24 07:18:23;;;;;;;17.17;11.52;;;;;;;7.81;96.85;102464.53;5113313;28;20023;-79
2021/10/24 07:20:49;;;;;;;19.08;11.95;;;;;;;7.96;96.76;102466.06;5113509;28;20036;-77
2021/10/24 07:23:14;;;;;;;20.13;13.15;;;;;;;7.97;95.91;102468.66;5112894;28;20028;-77
2021/10/24 07:25:39;;;;;;;18.13;11.55;;;;;;;8.01;96.01;102464.22;5113479;28;20035;-79
2021/10/24 07:28:05;;;;;;;18.10;12.00;;;;;;;8.00;95.25;102470.41;5112933;28;20054;-77
2021/10/24 07:30:31;;;;;;;17.80;12.20;;;;;;;8.12;95.77;102473.72;5113465;28;20039;-79
2021/10/24 07:32:56;;;;;;;18.10;12.07;;;;;;;8.16;95.18;102476.28;5095302;28;20028;-77
2021/10/24 07:35:22;;;;;;;16.83;11.18;;;;;;;8.27;94.36;102472.59;5112911;28;20044;-81
2021/10/24 07:37:47;;;;;;;14.73;11.32;;;;;;;8.22;93.83;102472.69;5113119;28;20466;-78
2021/10/24 07:40:13;;;;;;;16.15;11.07;;;;;;;8.31;93.91;102467.25;5112881;28;20363;-78
2021/10/24 07:42:39;;;;;;;16.25;10.98;;;;;;;8.38;93.59;102460.09;5095209;28;20050;-79
2021/10/24 07:45:05;;;;;;;15.38;10.75;;;;;;;8.57;92.32;102460.66;5115496;28;20382;-82
2021/10/24 07:47:30;;;;;;;14.65;10.35;;;;;;;8.45;92.42;102453.84;5113978;28;20046;-77
2021/10/24 07:49:59;;;;;;;14.30;10.35;;;;;;;8.51;92.06;102451.97;5113974;28;20438;-78
2021/10/24 07:52:25;;;;;;;15.90;9.18;;;;;;;8.60;91.46;102447.44;5113818;28;20115;-80
2021/10/24 07:54:50;;;;;;;14.50;10.02;;;;;;;8.63;90.38;102448.28;5113163;28;20024;-79
2021/10/24 07:57:16;;;;;;;14.90;10.20;;;;;;;8.67;90.78;102448.19;5113110;28;20036;-79
2021/10/24 07:59:41;;;;;;;13.45;9.95;;;;;;;8.71;89.78;102444.59;5112765;28;20027;-79
2021/10/24 08:02:10;;;;;;;17.13;10.75;;;;;;;8.85;89.40;102446.06;5112537;28;20028;-81
2021/10/24 08:04:36;;;;;;;19.15;10.60;;;;;;;8.93;88.83;102438.88;5112764;28;20027;-79
2021/10/24 08:07:03;;;;;;;12.82;9.15;;;;;;;8.84;88.93;102439.94;5112613;28;20024;-82
2021/10/24 08:09:29;;;;;;;13.10;9.55;;;;;;;8.74;88.48;102435.72;5094208;28;20023;-79
2021/10/24 08:11:55;;;;;;;13.93;9.73;;;;;;;9.05;88.42;102437.75;5112748;28;20023;-79
2021/10/24 08:14:20;;;;;;;14.68;9.63;;;;;;;9.24;86.88;102429.44;5113089;28;20020;-85
2021/10/24 08:16:46;;;;;;;13.23;9.07;;;;;;;9.05;86.47;102428.97;5112848;28;20024;-80
2021/10/24 08:19:12;;;;;;;15.20;9.63;;;;;;;9.13;86.46;102426.19;5112845;28;20042;-77
2021/10/24 08:21:38;;;;;;;10.95;8.85;;;;;;;9.34;85.57;102430.09;5112947;28;20027;-83
2021/10/24 08:24:04;;;;;;;12.25;8.80;;;;;;;9.25;84.68;102425.91;5094855;28;20020;-80
2021/10/24 08:28:57;;;;;;;13.43;9.50;;;;;;;9.64;83.84;102422.41;5091252;28;20044;-82
2021/10/24 08:31:26;;;;;;;10.73;8.05;;;;;;;9.56;82.63;102422.56;5093444;28;20028;-83
2021/10/24 08:33:53;;;;;;;12.43;8.32;;;;;;;9.49;82.00;102410.44;5077887;28;20036;-83
2021/10/24 08:36:19;;;;;;;12.20;8.73;;;;;;;9.59;81.85;102414.56;5094388;28;20470;-86
2021/10/24 08:38:44;;;;;;;13.23;9.70;;;;;;;9.71;81.89;102413.41;5096282;28;20027;-87
2021/10/24 08:41:11;;;;;;;14.55;8.80;;;;;;;9.76;80.89;102404.53;5096799;28;20496;-79
2021/10/24 08:43:38;;;;;;;10.77;8.80;;;;;;;9.90;79.92;102402.38;5095853;28;20020;-80
2021/10/24 08:46:05;;;;;;;12.75;9.05;;;;;;;9.77;79.73;102396.56;5095611;28;20118;-76
2021/10/24 08:48:33;;;;;;;11.27;8.40;;;;;;;9.94;79.46;102403.19;5095480;28;20039;-77
2021/10/24 08:50:59;;;;;;;11.88;8.32;;;;;;;9.93;79.77;102396.19;5095804;28;20442;-77
2021/10/24 08:53:25;;;;;;;11.25;8.07;;;;;;;10.10;78.48;102398.38;5095804;28;20028;-78
2021/10/24 08:55:51;;;;;;;13.75;8.10;;;;;;;10.04;78.43;102390.63;5096360;28;20088;-77
2021/10/24 08:58:17;;;;;;;14.10;8.25;;;;;;;10.15;77.64;102393.81;5095937;28;20059;-78
2021/10/24 09:00:42;;;;;;;14.38;7.93;;;;;;;10.24;76.61;102395.38;5094533;28;20431;-84
2021/10/24 09:03:11;;;;;;;10.60;7.72;;;;;;;10.42;76.70;102398.41;5094051;28;20030;-79
2021/10/24 09:05:42;;;;;;;13.13;7.68;;;;;;;10.24;75.57;102395.38;5092914;28;20024;-80
2021/10/24 09:08:08;;;;;;;11.77;6.80;;;;;;;10.32;74.92;102401.31;5073608;28;20024;-80
2021/10/24 09:10:35;;;;;;;11.18;7.80;;;;;;;10.19;74.45;102394.63;5074410;28;20028;-76
2021/10/24 09:13:02;;;;;;;12.60;7.00;;;;;;;10.16;75.57;102394.69;5074546;28;20383;-76
2021/10/24 09:15:28;;;;;;;10.38;6.60;;;;;;;10.26;75.52;102388.25;5074016;28;20029;-78
2021/10/24 09:18:07;;;;;;;9.30;7.00;;;;;;;10.50;73.65;102388.53;5074764;28;20032;-84
2021/10/24 09:20:32;;;;;;;9.70;7.43;;;;;;;10.57;72.96;102390.06;5075877;28;20027;-82
2021/10/24 09:23:05;;;;;;;11.20;7.38;;;;;;;10.74;72.37;102394.03;5075377;28;20467;-83
2021/10/24 09:25:31;;;;;;;11.15;7.32;;;;;;;10.59;73.54;102385.63;5075521;28;20471;-82
2021/10/24 09:28:00;;;;;;;8.02;6.80;;;;;;;10.95;72.28;102381.09;5028056;28;20042;-84
2021/10/24 09:30:33;;;;;;;11.68;8.20;;;;;;;10.99;72.39;102377.44;4994684;28;20039;-82
2021/10/24 09:33:11;;;;;;;9.05;7.32;;;;;;;11.11;71.79;102378.00;4994676;28;20034;-78
2021/10/24 09:35:41;;;;;;;9.48;7.07;;;;;;;11.20;71.06;102380.34;4992778;28;20018;-78
2021/10/24 09:38:11;;;;;;;10.05;7.38;;;;;;;11.43;70.83;102376.97;4992467;28;20361;-78
2021/10/24 09:40:40;;;;;;;10.07;7.10;;;;;;;11.31;70.34;102375.56;5059565;28;20026;-77
2021/10/24 09:43:20;;;;;;;10.13;7.10;;;;;;;11.69;69.46;102374.38;4991995;28;20022;-77
2021/10/24 09:45:56;;;;;;;13.18;7.70;;;;;;;11.34;69.42;102375.47;4992165;28;20034;-78
2021/10/24 09:48:23;;;;;;;10.85;7.10;;;;;;;11.34;69.74;102375.47;5057613;28;20042;-76
2021/10/24 09:50:51;;;;;;;9.38;6.80;;;;;;;11.35;70.64;102371.03;4991740;28;20019;-77
2021/10/24 09:53:27;;;;;;;11.20;7.22;;;;;;;11.69;69.86;102371.72;4992082;28;20026;-77
2021/10/24 09:55:53;;;;;;;10.60;7.03;;;;;;;11.77;69.46;102375.00;4997061;28;20026;-83
2021/10/24 09:58:18;;;;;;;10.25;7.03;;;;;;;11.61;68.95;102373.78;4993723;28;20076;-80
2021/10/24 10:00:43;;;;;;;9.70;7.03;;;;;;;11.93;68.46;102369.16;5043297;28;20094;-78
2021/10/24 10:03:09;;;;;;;9.00;6.63;;;;;;;11.90;68.21;102369.28;4995641;28;20030;-83
2021/10/24 10:05:51;;;;;;;12.38;8.75;;;;;;;11.73;67.94;102364.53;5034541;28;20032;-82
2021/10/24 10:08:17;;;;;;;12.75;8.82;;;;;;;11.65;69.06;102373.63;5052798;28;20058;-81
2021/10/24 10:10:46;;;;;;;10.13;7.18;;;;;;;11.88;68.58;102364.03;5034992;28;20045;-83
2021/10/24 10:13:12;;;;;;;9.30;6.55;;;;;;;11.99;67.43;102366.31;5103125;28;20037;-83
2021/10/24 10:15:45;;;;;;;9.40;7.15;;;;;;;11.81;67.46;102367.81;5103053;28;20532;-81
2021/10/24 10:18:10;;;;;;;11.38;7.00;;;;;;;12.01;67.82;102363.59;5104000;28;20103;-84
2021/10/24 10:20:50;;;;;;;10.10;6.90;;;;;;;12.01;66.24;102361.81;5102275;28;20021;-83
2021/10/24 10:23:17;;;;;;;10.73;7.25;;;;;;;12.49;66.75;102361.94;5033722;28;20090;-84
2021/10/24 10:25:43;;;;;;;11.52;7.32;;;;;;;12.53;65.97;102349.41;5033592;28;20094;-84
2021/10/24 10:28:13;;;;;;;8.50;6.30;;;;;;;12.80;65.69;102344.00;5033180;28;20074;-82
2021/10/24 10:30:39;;;;;;;13.60;7.35;;;;;;;12.65;65.11;102348.09;5032470;28;20057;-85
2021/10/24 10:33:28;;;;;;;10.98;6.65;;;;;;;12.80;65.66;102346.66;5032463;28;20029;-84
2021/10/24 10:35:53;;;;;;;6.88;6.18;;;;;;;12.55;64.75;102344.94;5032761;28;20026;-81
2021/10/24 10:38:41;;;;;;;11.18;6.88;;;;;;;12.49;64.53;102346.00;5033178;28;20101;-85
2021/10/24 10:41:09;;;;;;;9.23;6.50;;;;;;;12.80;63.82;102342.19;5102794;28;20443;-81
2021/10/24 10:43:34;;;;;;;7.88;5.90;;;;;;;12.72;64.15;102344.28;5032768;28;20037;-81
2021/10/24 10:46:01;;;;;;;11.35;6.63;;;;;;;12.58;63.75;102336.84;5032963;28;20391;-79
2021/10/24 10:48:33;;;;;;;7.30;6.00;;;;;;;12.64;63.34;102335.75;5031072;28;20025;-77
2021/10/24 10:51:25;;;;;;;7.50;5.72;;;;;;;12.78;63.42;102335.22;5030440;28;20022;-77
2021/10/24 10:54:00;;;;;;;10.85;6.22;;;;;;;12.75;63.45;102330.91;5030223;28;20025;-78
2021/10/24 10:56:28;;;;;;;7.68;5.47;;;;;;;12.98;62.60;102328.25;5029532;28;20104;-78
2021/10/24 10:58:58;;;;;;;8.75;6.47;;;;;;;12.87;63.14;102331.34;5030745;28;20033;-78
2021/10/24 11:01:39;;;;;;;9.18;6.18;;;;;;;13.04;63.26;102314.75;5030511;28;20025;-78
2021/10/24 11:04:07;;;;;;;11.90;7.40;;;;;;;12.87;63.49;102326.03;5030378;28;20036;-79
2021/10/24 11:06:36;;;;;;;9.52;6.43;;;;;;;12.94;62.49;102319.56;5030649;28;20033;-79
2021/10/24 11:09:08;;;;;;;10.63;6.78;;;;;;;13.02;63.39;102320.09;5029829;28;20033;-78
2021/10/24 11:11:40;;;;;;;9.37;6.47;;;;;;;13.01;62.92;102315.72;5030371;28;20408;-78
2021/10/24 11:14:13;;;;;;;8.38;6.32;;;;;;;13.19;62.62;102307.97;5030445;28;20030;-77